Biggs Army Air Field (Fort Bliss)
KBIF : now visible

Airfield :











YOU CAN JOIN US ON...

 
LOGIN :

Register | Disclaimer

   EN    FR    IT 

 









Legend :    VFR   Marginal VFR   IFR   Intensive IFR   Very Intensive IFR
Visi :
Ceiling :
>= 8 km
>= 3000ft
5 to 8 km
1000 to 3000 ft
1500m to 5 km
500 to 1000 ft
800 to 1500m
200 to 500 ft
< 800m
< 200 ft
Symbols :   Thunderstorms  Fog  Heavy snow  Heavy precipitations  Wind > 20 kt






- Airport Elevation : 3946 ft


KBIF - Biggs Army Air Field (Fort Bliss)

CURRENT METAR :
  • 060540Z AUTO 12007KT 9SM -RA FEW065 BKN130 BKN170 30/12 A3001 RMK AO2 LTG DSNT N RAB40 PRESRR SLP085

EXPIRED METARs :
  • 060458Z AUTO 13014KT 9SM OVC140 32/11 A2995 RMK AO2 SLP064 T03160109 CHINO RWY03 $
  • 060358Z AUTO 13012KT 10SM SCT150 SCT180 34/08 A2991 RMK AO2 SLP050 T03360082 CHINO RWY03 $
  • 060258Z AUTO 15006KT 10SM BKN180 35/06 A2988 RMK AO2 SLP040 T03510055 53005 CHINO RWY03 $

TAF TAF KBIF
Valid from the 05 at 22:00 until the 07 at 04:00 UTC


0522/0704 VRB06KT 9999 BKN200 QNH2982INS
TEMPO 0600/0605 VRB12G25KT VCTS BKN150CB
BECMG 0606/0607 VRB06KT 9999 SCT130 BKN170 QNH2995INS
BECMG 0618/0619 VRB20G35KT 9999 VCTS BKN080CB BKN150 QNH2993INS TX40/0622Z TN21/0612Z
KZAB FIR / North America



MET'MAP, your aeronautical weather chart ! - Copyright ORBIFLY December 2007 - Disclaimer

ORBIFLY MET'MAP TEAM :

Programming & Development : Alexandra Zaïnal
Concept & original design : Baudouin d'Aumeries
Assistance for programming : Marc-Olivier Méhu
Technical & hardware support : Manuel Goepfert

Contact : metmap@orbifly.com




SOURCES & CREDITS :

   NOAA       Earth
Advisory